createdAt,value
2023-02-23T00:02:06.234Z,7.20
2023-02-23T00:04:37.250Z,7.10
2023-02-23T00:07:06.367Z,7.10
2023-02-23T00:09:36.141Z,7.10
2023-02-23T00:12:07.864Z,7.10
2023-02-23T00:14:37.825Z,7.10
2023-02-23T00:17:10.920Z,7.10
2023-02-23T00:19:37.988Z,7.10
2023-02-23T00:22:05.040Z,7.10
2023-02-23T00:24:32.120Z,7.00
2023-02-23T00:26:59.148Z,7.00
2023-02-23T00:29:26.218Z,7.00
2023-02-23T00:31:53.493Z,7.00
2023-02-23T00:34:22.105Z,7.00
2023-02-23T00:36:55.215Z,7.00
2023-02-23T00:39:23.941Z,7.00
2023-02-23T00:41:55.631Z,7.00
2023-02-23T00:44:23.906Z,6.90
2023-02-23T00:46:52.223Z,6.90
2023-02-23T00:49:21.970Z,6.90
2023-02-23T00:51:49.525Z,6.80
2023-02-23T00:54:17.778Z,6.80
2023-02-23T00:56:45.326Z,6.80
2023-02-23T00:59:13.465Z,6.80
2023-02-23T01:01:42.056Z,6.80
2023-02-23T01:04:10.246Z,6.80
2023-02-23T01:06:38.183Z,6.70
2023-02-23T01:09:21.993Z,6.70
2023-02-23T01:11:49.088Z,6.70
2023-02-23T01:14:16.084Z,6.60
2023-02-23T01:16:43.120Z,6.70
2023-02-23T01:19:10.986Z,6.60
2023-02-23T01:21:42.154Z,6.60
2023-02-23T01:24:10.174Z,6.60
2023-02-23T01:26:40.108Z,6.60
2023-02-23T01:29:12.965Z,6.60
2023-02-23T01:31:42.611Z,6.60
2023-02-23T01:34:12.340Z,6.60
2023-02-23T01:36:41.103Z,6.60
2023-02-23T01:39:16.200Z,6.60
2023-02-23T01:41:44.030Z,6.60
2023-02-23T01:44:13.764Z,6.60
2023-02-23T01:46:43.838Z,6.60
2023-02-23T01:49:16.152Z,6.60
2023-02-23T01:51:49.658Z,6.60
2023-02-23T01:54:21.578Z,6.60
2023-02-23T01:56:58.436Z,6.60
2023-02-23T01:59:39.135Z,6.60
2023-02-23T02:02:06.208Z,6.60
2023-02-23T02:04:44.720Z,6.60
2023-02-23T02:07:22.905Z,6.60
2023-02-23T02:10:12.032Z,6.60
2023-02-23T02:12:40.291Z,6.60
2023-02-23T02:15:17.215Z,6.60
2023-02-23T02:18:09.696Z,6.60
2023-02-23T02:21:13.774Z,6.60
2023-02-23T02:23:58.620Z,6.60
2023-02-23T02:26:57.664Z,6.60
2023-02-23T02:29:38.300Z,6.60
2023-02-23T02:32:11.356Z,6.60
2023-02-23T02:35:24.474Z,6.60
2023-02-23T02:37:56.957Z,6.60
2023-02-23T02:40:32.649Z,6.60
2023-02-23T02:43:11.320Z,6.60
2023-02-23T02:45:51.185Z,6.60
2023-02-23T02:48:57.951Z,6.60
2023-02-23T02:51:31.505Z,6.60
2023-02-23T02:54:32.714Z,6.60
2023-02-23T02:57:04.510Z,6.60
2023-02-23T02:59:50.414Z,6.50
2023-02-23T03:02:39.363Z,6.50
2023-02-23T03:05:37.046Z,6.50
2023-02-23T03:08:37.112Z,6.50
2023-02-23T03:11:26.771Z,6.50
2023-02-23T03:14:46.053Z,6.50
2023-02-23T03:18:14.880Z,6.50
2023-02-23T03:21:10.686Z,6.50
2023-02-23T03:24:15.680Z,6.50
2023-02-23T03:27:14.454Z,6.50
2023-02-23T03:30:18.078Z,6.50
2023-02-23T03:33:12.595Z,6.50
2023-02-23T03:36:19.810Z,6.50
2023-02-23T03:39:14.699Z,6.50
2023-02-23T03:42:03.056Z,6.50
2023-02-23T03:44:53.026Z,6.50
2023-02-23T03:47:43.342Z,6.50
2023-02-23T03:50:38.568Z,6.40
2023-02-23T03:53:25.935Z,6.40
2023-02-23T03:56:14.947Z,6.40
2023-02-23T03:59:10.211Z,6.40
2023-02-23T04:01:57.068Z,6.40
2023-02-23T04:04:44.175Z,6.40
2023-02-23T04:07:33.206Z,6.40
2023-02-23T04:10:18.777Z,6.40
2023-02-23T04:13:17.868Z,6.40
2023-02-23T04:15:53.261Z,6.30
2023-02-23T04:18:32.397Z,6.30
2023-02-23T04:21:00.194Z,6.20
2023-02-23T04:23:28.153Z,6.20
2023-02-23T04:25:56.218Z,6.20
2023-02-23T04:28:24.717Z,6.20
2023-02-23T04:30:53.110Z,6.20
2023-02-23T04:33:25.230Z,6.20
2023-02-23T04:35:55.331Z,6.20
2023-02-23T04:38:23.434Z,6.20
2023-02-23T04:40:51.446Z,6.20
2023-02-23T04:43:18.465Z,6.10
2023-02-23T04:45:45.770Z,6.10
2023-02-23T04:48:12.852Z,6.10
2023-02-23T04:50:39.871Z,6.10
2023-02-23T04:53:07.110Z,6.00
2023-02-23T04:55:34.223Z,6.10
2023-02-23T04:58:03.818Z,6.00
2023-02-23T05:00:31.689Z,6.00
2023-02-23T05:02:58.729Z,6.00
2023-02-23T05:05:26.092Z,6.00
2023-02-23T05:07:54.662Z,6.00
2023-02-23T05:10:21.783Z,6.00
2023-02-23T05:12:48.874Z,6.00
2023-02-23T05:15:16.318Z,6.00
2023-02-23T05:17:43.804Z,6.00
2023-02-23T05:20:12.777Z,6.00
2023-02-23T05:22:40.317Z,6.10
2023-02-23T05:25:09.214Z,6.10
2023-02-23T05:27:37.092Z,6.10
2023-02-23T05:30:05.700Z,6.20
2023-02-23T05:32:32.821Z,6.20
2023-02-23T05:34:59.871Z,6.20
2023-02-23T05:37:26.962Z,6.20
2023-02-23T05:39:54.242Z,6.20
2023-02-23T05:42:21.252Z,6.20
2023-02-23T05:44:48.496Z,6.30
2023-02-23T05:47:15.533Z,6.30
2023-02-23T05:49:42.909Z,6.40
2023-02-23T05:52:09.977Z,6.40
2023-02-23T05:54:36.969Z,6.40
2023-02-23T05:57:04.054Z,6.50
2023-02-23T05:59:31.337Z,6.50
2023-02-23T06:01:58.350Z,6.60
2023-02-23T06:04:25.372Z,6.60
2023-02-23T06:06:52.442Z,6.70
2023-02-23T06:09:19.468Z,6.70
2023-02-23T06:11:46.493Z,6.80
2023-02-23T06:14:13.555Z,6.80
2023-02-23T06:16:40.748Z,6.90
2023-02-23T06:19:08.092Z,6.80
2023-02-23T06:21:35.156Z,6.90
2023-02-23T06:24:02.674Z,7.00
2023-02-23T06:26:29.700Z,7.00
2023-02-23T06:28:57.393Z,7.00
2023-02-23T06:31:24.539Z,7.00
2023-02-23T06:33:51.578Z,7.10
2023-02-23T06:36:18.746Z,7.10
2023-02-23T06:38:45.853Z,7.10
2023-02-23T06:41:13.368Z,7.10
2023-02-23T06:43:40.376Z,7.10
2023-02-23T06:46:07.653Z,7.10
2023-02-23T06:48:35.662Z,7.20
2023-02-23T06:51:02.669Z,7.20
2023-02-23T06:53:31.454Z,7.20
2023-02-23T06:55:58.450Z,7.30
2023-02-23T06:58:25.692Z,7.30
2023-02-23T07:00:56.849Z,7.40
2023-02-23T07:03:25.356Z,7.50
2023-02-23T07:05:52.879Z,7.50
2023-02-23T07:08:19.930Z,7.60
2023-02-23T07:10:47.046Z,7.70
2023-02-23T07:13:14.118Z,7.80
2023-02-23T07:15:41.577Z,7.80
2023-02-23T07:18:08.709Z,7.90
2023-02-23T07:20:35.842Z,7.90
2023-02-23T07:23:02.861Z,8.00
2023-02-23T07:25:30.964Z,8.10
2023-02-23T07:27:59.193Z,8.10
2023-02-23T07:30:26.452Z,8.20
2023-02-23T07:32:54.214Z,8.20
2023-02-23T07:35:21.651Z,8.30
2023-02-23T07:37:48.839Z,8.40
2023-02-23T07:40:16.033Z,8.40
2023-02-23T07:42:43.121Z,8.50
2023-02-23T07:45:10.583Z,8.50
2023-02-23T07:47:39.449Z,8.60
2023-02-23T07:50:10.622Z,8.60
2023-02-23T07:52:39.163Z,8.70
2023-02-23T07:55:08.054Z,8.70
2023-02-23T07:57:35.442Z,8.80
2023-02-23T08:00:02.705Z,8.80
2023-02-23T08:02:29.820Z,8.80
2023-02-23T08:04:56.824Z,8.90
2023-02-23T08:07:25.985Z,8.80
2023-02-23T08:09:53.806Z,8.90
2023-02-23T08:12:20.943Z,8.90
2023-02-23T08:14:48.081Z,9.00
2023-02-23T08:17:15.177Z,9.10
2023-02-23T08:19:42.189Z,9.20
2023-02-23T08:22:10.282Z,9.30
2023-02-23T08:24:37.990Z,9.40
2023-02-23T08:27:05.633Z,9.50
2023-02-23T08:29:33.669Z,9.50
2023-02-23T08:32:04.342Z,9.60
2023-02-23T08:34:32.214Z,9.70
2023-02-23T08:37:00.443Z,9.70
2023-02-23T08:39:27.527Z,9.70
2023-02-23T08:41:57.487Z,9.80
2023-02-23T08:44:24.559Z,9.80
2023-02-23T08:46:51.723Z,9.90
2023-02-23T08:49:18.838Z,9.90
2023-02-23T08:51:47.125Z,10.00
2023-02-23T08:54:16.380Z,10.10
2023-02-23T08:56:43.939Z,10.20
2023-02-23T08:59:13.161Z,10.20
2023-02-23T09:01:40.431Z,10.20
2023-02-23T09:04:07.541Z,10.30
2023-02-23T09:06:35.536Z,10.40
2023-02-23T09:09:02.788Z,10.50
2023-02-23T09:11:29.841Z,10.60
2023-02-23T09:13:56.963Z,10.70
2023-02-23T09:16:24.187Z,10.80
2023-02-23T09:18:51.257Z,10.90
2023-02-23T09:21:22.518Z,11.00
2023-02-23T09:23:51.660Z,11.10
2023-02-23T09:26:20.220Z,11.10
2023-02-23T09:28:47.958Z,11.10
2023-02-23T09:31:19.097Z,11.20
2023-02-23T09:33:47.013Z,11.30
2023-02-23T09:36:20.271Z,11.30
2023-02-23T09:38:49.833Z,11.40
2023-02-23T09:41:25.648Z,11.50
2023-02-23T09:44:12.132Z,11.50
2023-02-23T09:46:51.546Z,11.70
2023-02-23T09:49:22.836Z,11.80
2023-02-23T09:51:58.037Z,11.90
2023-02-23T09:54:33.417Z,12.00
2023-02-23T09:57:05.084Z,12.00
2023-02-23T09:59:32.233Z,12.10
2023-02-23T10:02:07.116Z,12.20
2023-02-23T10:04:34.147Z,12.30
2023-02-23T10:07:32.327Z,12.40
2023-02-23T10:10:44.887Z,12.50
2023-02-23T10:13:38.521Z,12.60
2023-02-23T10:16:24.102Z,12.70
2023-02-23T10:19:17.065Z,12.80
2023-02-23T10:21:51.752Z,12.90
2023-02-23T10:24:25.702Z,12.90
2023-02-23T10:26:57.034Z,12.90
2023-02-23T10:29:27.666Z,12.90
2023-02-23T10:32:06.591Z,12.90
2023-02-23T10:34:37.088Z,13.00
2023-02-23T10:37:10.139Z,13.20
2023-02-23T10:39:37.242Z,13.30
2023-02-23T10:42:07.947Z,13.30
2023-02-23T10:44:35.208Z,13.50
2023-02-23T10:47:13.765Z,13.60
2023-02-23T10:49:53.386Z,13.70
2023-02-23T10:52:45.604Z,13.80
2023-02-23T10:55:27.503Z,13.90
2023-02-23T10:58:18.600Z,14.00
2023-02-23T11:00:51.426Z,14.10
2023-02-23T11:03:25.506Z,14.20
2023-02-23T11:05:53.978Z,14.30
2023-02-23T11:08:32.047Z,14.40
2023-02-23T11:11:16.074Z,14.40
2023-02-23T11:13:46.880Z,14.50
2023-02-23T11:16:15.248Z,14.50
2023-02-23T11:18:54.958Z,14.50
2023-02-23T11:21:25.889Z,14.50
2023-02-23T11:23:57.484Z,14.50
2023-02-23T11:26:33.788Z,14.50
2023-02-23T11:29:11.169Z,14.60
2023-02-23T11:31:39.838Z,14.70
2023-02-23T11:34:07.912Z,14.80
2023-02-23T11:36:38.046Z,15.00
2023-02-23T11:39:18.895Z,15.20
2023-02-23T11:41:46.338Z,15.20
2023-02-23T11:44:22.552Z,15.30
2023-02-23T11:46:51.830Z,15.10
2023-02-23T11:49:27.672Z,15.10
2023-02-23T11:51:56.454Z,15.10
2023-02-23T11:54:35.550Z,15.20
2023-02-23T11:57:02.977Z,15.30
2023-02-23T11:59:38.551Z,15.30
2023-02-23T12:02:25.532Z,15.20
2023-02-23T12:05:10.323Z,15.30
2023-02-23T12:08:02.811Z,15.20
2023-02-23T12:10:32.984Z,15.10
2023-02-23T12:13:25.925Z,15.00
2023-02-23T12:16:08.749Z,15.10
2023-02-23T12:18:57.267Z,15.00
2023-02-23T12:21:29.003Z,14.80
2023-02-23T12:24:04.852Z,14.70
2023-02-23T12:26:41.324Z,14.80
2023-02-23T12:29:23.351Z,15.00
2023-02-23T12:31:58.402Z,15.00
2023-02-23T12:34:42.269Z,14.90
2023-02-23T12:37:25.088Z,14.80
2023-02-23T12:40:03.205Z,14.70
2023-02-23T12:42:43.337Z,14.60
2023-02-23T12:45:33.748Z,14.60
2023-02-23T12:48:13.374Z,14.50
2023-02-23T12:50:53.694Z,14.40
2023-02-23T12:53:37.668Z,14.40
2023-02-23T12:56:25.481Z,14.50
2023-02-23T12:59:26.197Z,14.60
2023-02-23T13:02:01.025Z,14.70
2023-02-23T13:04:44.935Z,14.80
2023-02-23T13:07:21.170Z,14.90
2023-02-23T13:10:03.992Z,15.10
2023-02-23T13:12:41.466Z,15.30
2023-02-23T13:15:38.228Z,15.40
2023-02-23T13:18:34.222Z,15.40
2023-02-23T13:21:33.489Z,15.50
2023-02-23T13:24:23.515Z,15.50
2023-02-23T13:27:03.857Z,15.50
2023-02-23T13:29:43.094Z,15.60
2023-02-23T13:32:14.985Z,15.50
2023-02-23T13:34:52.752Z,15.40
2023-02-23T13:37:26.530Z,15.40
2023-02-23T13:40:11.664Z,15.50
2023-02-23T13:43:18.070Z,15.70
2023-02-23T13:45:48.962Z,15.80
2023-02-23T13:48:55.637Z,15.70
2023-02-23T13:51:39.643Z,15.60
2023-02-23T13:54:12.510Z,15.50
2023-02-23T13:57:12.989Z,15.40
2023-02-23T13:59:45.917Z,15.40
2023-02-23T14:02:31.145Z,15.30
2023-02-23T14:05:25.084Z,15.20
2023-02-23T14:08:05.103Z,15.00
2023-02-23T14:10:45.717Z,14.80
2023-02-23T14:13:18.483Z,14.80
2023-02-23T14:15:50.036Z,14.70
2023-02-23T14:18:21.120Z,14.60
2023-02-23T14:21:17.958Z,14.50
2023-02-23T14:23:48.139Z,14.40
2023-02-23T14:26:30.185Z,14.40
2023-02-23T14:29:32.149Z,14.30
2023-02-23T14:32:01.297Z,14.30
2023-02-23T14:34:52.099Z,14.30
2023-02-23T14:37:32.219Z,14.30
2023-02-23T14:40:15.228Z,14.30
2023-02-23T14:42:46.542Z,14.30
2023-02-23T14:45:37.033Z,14.30
2023-02-23T14:48:19.629Z,14.40
2023-02-23T14:50:47.081Z,14.50
2023-02-23T14:53:22.283Z,14.40
2023-02-23T14:55:50.012Z,14.50
2023-02-23T14:58:33.904Z,14.40
2023-02-23T15:01:01.098Z,14.40
2023-02-23T15:03:28.160Z,14.30
2023-02-23T15:05:59.166Z,14.30
2023-02-23T15:08:30.138Z,14.20
2023-02-23T15:11:12.850Z,14.20
2023-02-23T15:13:50.663Z,14.20
2023-02-23T15:16:36.960Z,14.10
2023-02-23T15:19:33.553Z,14.10
2023-02-23T15:22:03.188Z,14.00
2023-02-23T15:24:44.875Z,13.80
2023-02-23T15:27:44.402Z,13.80
2023-02-23T15:30:28.000Z,13.70
2023-02-23T15:33:15.591Z,13.70
2023-02-23T15:36:09.565Z,13.60
2023-02-23T15:38:45.669Z,13.60
2023-02-23T15:41:25.383Z,13.50
2023-02-23T15:43:52.698Z,13.50
2023-02-23T15:46:26.833Z,13.40
2023-02-23T15:48:55.911Z,13.30
2023-02-23T15:51:44.670Z,13.30
2023-02-23T15:54:24.460Z,13.30
2023-02-23T15:56:57.608Z,13.20
2023-02-23T15:59:39.677Z,13.10
2023-02-23T16:02:19.642Z,13.00
2023-02-23T16:04:53.099Z,13.00
2023-02-23T16:07:23.222Z,12.90
2023-02-23T16:09:54.823Z,12.90
2023-02-23T16:12:35.993Z,12.90
2023-02-23T16:15:21.347Z,12.90
2023-02-23T16:18:11.967Z,12.80
2023-02-23T16:20:42.083Z,12.80
2023-02-23T16:23:33.522Z,12.80
2023-02-23T16:26:12.229Z,12.80
2023-02-23T16:28:45.790Z,12.80
2023-02-23T16:31:23.623Z,12.80
2023-02-23T16:34:00.530Z,12.90
2023-02-23T16:36:40.264Z,12.80
2023-02-23T16:39:12.042Z,12.80
2023-02-23T16:41:40.055Z,12.80
2023-02-23T16:44:08.086Z,12.80
2023-02-23T16:47:02.989Z,12.70
2023-02-23T16:49:30.597Z,12.70
2023-02-23T16:51:58.930Z,12.60
2023-02-23T16:54:26.197Z,12.60
2023-02-23T16:56:56.601Z,12.60
2023-02-23T16:59:24.503Z,12.50
2023-02-23T17:01:51.837Z,12.50
2023-02-23T17:04:22.315Z,12.50
2023-02-23T17:06:55.811Z,12.40
2023-02-23T17:09:24.466Z,12.40
2023-02-23T17:11:51.863Z,12.40
2023-02-23T17:14:28.802Z,12.40
2023-02-23T17:16:56.816Z,12.30
2023-02-23T17:19:26.030Z,12.30
2023-02-23T17:21:53.787Z,12.30
2023-02-23T17:24:26.365Z,12.30
2023-02-23T17:26:55.581Z,12.30
2023-02-23T17:29:23.013Z,12.30
2023-02-23T17:31:51.151Z,12.30
2023-02-23T17:34:19.100Z,12.30
2023-02-23T17:36:46.684Z,12.20
2023-02-23T17:39:17.358Z,12.20
2023-02-23T17:41:45.437Z,12.20
2023-02-23T17:44:12.841Z,12.20
2023-02-23T17:46:40.799Z,12.20
2023-02-23T17:49:09.094Z,12.10
2023-02-23T17:51:36.846Z,12.10
2023-02-23T17:54:04.453Z,12.10
2023-02-23T17:56:32.315Z,12.10
2023-02-23T17:59:00.539Z,12.00
2023-02-23T18:01:28.236Z,12.00
2023-02-23T18:03:59.393Z,12.00
2023-02-23T18:06:28.420Z,12.00
2023-02-23T18:08:56.464Z,12.00
2023-02-23T18:11:24.504Z,11.90
2023-02-23T18:13:52.799Z,11.90
2023-02-23T18:16:22.405Z,11.90
2023-02-23T18:18:50.236Z,11.90
2023-02-23T18:21:22.968Z,11.90
2023-02-23T18:23:52.310Z,11.90
2023-02-23T18:26:23.154Z,11.80
2023-02-23T18:28:51.906Z,11.80
2023-02-23T18:31:22.787Z,11.80
2023-02-23T18:33:57.261Z,11.80
2023-02-23T18:36:36.446Z,11.80
2023-02-23T18:39:09.010Z,11.80
2023-02-23T18:41:37.389Z,11.80
2023-02-23T18:44:08.424Z,11.80
2023-02-23T18:46:36.631Z,11.80
2023-02-23T18:49:06.481Z,11.70
2023-02-23T18:51:35.032Z,11.70
2023-02-23T18:54:06.566Z,11.70
2023-02-23T18:56:34.505Z,11.70
2023-02-23T18:59:02.992Z,11.70
2023-02-23T19:01:34.269Z,11.60
2023-02-23T19:04:05.486Z,11.60
2023-02-23T19:06:36.343Z,11.60
2023-02-23T19:09:08.094Z,11.60
2023-02-23T19:11:36.976Z,11.60
2023-02-23T19:14:18.498Z,11.60
2023-02-23T19:16:48.060Z,11.50
2023-02-23T19:19:17.757Z,11.50
2023-02-23T19:21:45.539Z,11.50
2023-02-23T19:24:13.122Z,11.50
2023-02-23T19:26:44.446Z,11.40
2023-02-23T19:29:12.813Z,11.40
2023-02-23T19:31:41.314Z,11.40
2023-02-23T19:34:10.600Z,11.40
2023-02-23T19:36:38.731Z,11.40
2023-02-23T19:39:18.721Z,11.40
2023-02-23T19:41:47.969Z,11.40
2023-02-23T19:44:16.055Z,11.40
2023-02-23T19:46:44.308Z,11.40
2023-02-23T19:49:13.686Z,11.40
2023-02-23T19:51:41.407Z,11.40
2023-02-23T19:54:10.289Z,11.40
2023-02-23T19:56:39.212Z,11.40
2023-02-23T19:59:07.470Z,11.30
2023-02-23T20:01:37.212Z,11.40
2023-02-23T20:04:06.904Z,11.30
2023-02-23T20:06:40.051Z,11.30
2023-02-23T20:09:09.946Z,11.30
2023-02-23T20:11:39.105Z,11.30
2023-02-23T20:14:08.589Z,11.30
2023-02-23T20:16:37.469Z,11.30
2023-02-23T20:19:09.937Z,11.30
2023-02-23T20:21:38.198Z,11.30
2023-02-23T20:24:07.082Z,11.30
2023-02-23T20:26:37.887Z,11.30
2023-02-23T20:29:11.491Z,11.30
2023-02-23T20:31:42.420Z,11.30
2023-02-23T20:34:13.605Z,11.30
2023-02-23T20:36:41.649Z,11.30
2023-02-23T20:39:12.544Z,11.30
2023-02-23T20:41:46.930Z,11.30
2023-02-23T20:44:16.570Z,11.20
2023-02-23T20:46:45.816Z,11.20
2023-02-23T20:49:15.021Z,11.20
2023-02-23T20:51:47.124Z,11.20
2023-02-23T20:54:17.414Z,11.20
2023-02-23T20:56:59.586Z,11.20
2023-02-23T20:59:31.850Z,11.20
2023-02-23T21:02:04.926Z,11.10
2023-02-23T21:04:35.909Z,11.20
2023-02-23T21:07:05.630Z,11.20
2023-02-23T21:09:34.481Z,11.20
2023-02-23T21:12:04.642Z,11.20
2023-02-23T21:14:34.433Z,11.20
2023-02-23T21:17:04.104Z,11.20
2023-02-23T21:19:31.870Z,11.10
2023-02-23T21:22:01.885Z,11.10
2023-02-23T21:24:36.144Z,11.10
2023-02-23T21:27:05.518Z,11.10
2023-02-23T21:29:34.619Z,11.10
2023-02-23T21:32:02.182Z,11.10
2023-02-23T21:34:29.764Z,11.10
2023-02-23T21:36:59.508Z,11.10
2023-02-23T21:39:28.601Z,11.10
2023-02-23T21:41:57.247Z,11.10
2023-02-23T21:44:25.855Z,11.10
2023-02-23T21:46:53.652Z,11.00
2023-02-23T21:49:21.525Z,11.00
2023-02-23T21:51:48.811Z,11.00
2023-02-23T21:54:16.276Z,11.00
2023-02-23T21:56:43.493Z,10.90
2023-02-23T21:59:10.973Z,10.90
2023-02-23T22:01:41.967Z,10.90
2023-02-23T22:04:13.329Z,10.90
2023-02-23T22:06:43.149Z,10.90
2023-02-23T22:09:11.468Z,10.90
2023-02-23T22:11:42.795Z,10.80
2023-02-23T22:14:10.637Z,10.80
2023-02-23T22:16:43.492Z,10.80
2023-02-23T22:19:12.105Z,10.80
2023-02-23T22:21:44.564Z,10.80
2023-02-23T22:24:14.057Z,10.80
2023-02-23T22:26:46.999Z,10.80
2023-02-23T22:29:14.073Z,10.70
2023-02-23T22:31:41.400Z,10.70
2023-02-23T22:34:08.804Z,10.60
2023-02-23T22:36:35.840Z,10.60
2023-02-23T22:39:10.028Z,10.60
2023-02-23T22:41:43.249Z,10.60
2023-02-23T22:44:16.891Z,10.60
2023-02-23T22:46:48.504Z,10.60
2023-02-23T22:49:16.569Z,10.60
2023-02-23T22:51:44.374Z,10.50
2023-02-23T22:54:13.722Z,10.50
2023-02-23T22:56:42.451Z,10.50
2023-02-23T22:59:11.269Z,10.50
2023-02-23T23:01:39.357Z,10.50
2023-02-23T23:04:10.690Z,10.50
2023-02-23T23:06:40.441Z,10.50
2023-02-23T23:09:09.442Z,10.50
2023-02-23T23:11:36.530Z,10.50
2023-02-23T23:14:08.968Z,10.60
2023-02-23T23:16:40.647Z,10.60
2023-02-23T23:19:12.458Z,10.60
2023-02-23T23:21:42.118Z,10.60
2023-02-23T23:24:13.479Z,10.60
2023-02-23T23:26:41.418Z,10.60
2023-02-23T23:29:12.348Z,10.60
2023-02-23T23:31:41.117Z,10.70
2023-02-23T23:34:10.658Z,10.60
2023-02-23T23:36:49.009Z,10.60
2023-02-23T23:39:18.510Z,10.60
2023-02-23T23:41:49.405Z,10.60
2023-02-23T23:44:19.109Z,10.50
2023-02-23T23:46:46.527Z,10.50
2023-02-23T23:49:19.635Z,10.50
2023-02-23T23:51:50.571Z,10.50
2023-02-23T23:54:24.501Z,10.40
2023-02-23T23:56:52.050Z,10.40
2023-02-23T23:59:22.210Z,10.30
